首页
METAR-TAF:

METAR-TAF

机场 :

约翰内斯堡, 南非共和國

奥利弗·坦博国际机场

纬度: 26-08S, 经度: 028-14E, 海拔: 1694米

当前天气观测

该预报发布于28分钟前的14:00 UTC
风速8节,风向西北,在西北转东北之间变化
温度 27°C
湿度 37%
气压 1019 hPa
能见度10公里或以上
散云层高于4500英尺

METAR: FAOR 221400Z 32008KT 270V020 9999 SCT045 27/11 Q1019 NOSIG

时间: 16:28 (14:28 UTC)

预报

该预报发布于4小时和28分钟前的10:00 UTC
预报有效从22日的 12点(UTC)到 23日的 18点(UTC)
风速10节,风向北转西北
能见度10公里或以上
散云层高于4500英尺
几率 30% :
短暂存在
从 22日的 14点(UTC)到 22日的 16点(UTC)
少量云层高于4000英尺, 塔状积云.
几率 30% :
短暂存在
从 22日的 16点(UTC)到 22日的 24点(UTC)
风速10节,风向,有时为20节阵风
能見度: 5000
少量云层高于4000英尺, 积雨云.
雷暴, 雨
成为
从 22日的 19点(UTC)到 22日的 21点(UTC)
风速12节,风向东转东北
成为
从 23日的 02点(UTC)到 23日的 04点(UTC)
风速12节,风向
几率 30% :
短暂存在
从 23日的 03点(UTC)到 23日的 05点(UTC)
风速10节,风向西南
少量云层高于4000英尺, 塔状积云.
小阵雨
成为
从 23日的 07点(UTC)到 23日的 09点(UTC)
能见度10公里或以上
1500米以下无云,无积雨云

TAF: FAOR 221000Z 2212/2318 33010KT 9999 SCT045 PROB30 TEMPO 2214/2216 FEW040TCU PROB30 TEMPO 2216/2224 18010G20KT 5000 TSRA FEW040CB BECMG 2219/2221 06012KT BECMG 2302/2304 36012KT PROB30 TEMPO 2303/2305 22010KT -SHRA FEW040TCU BECMG 2307/2309 CAVOK TX29/2213Z TN16/2304Z

超过4000个机场的气象观测和天气预报(METAR&TAF报告)。

可查询的气象台以黄色和红色小点在地图上表示。

将鼠标移到小点上方,可查看气象台名称。

然后点击查看天气观测和预报。

如需切换地图:点击带黑十字的绿色按钮放大地图;点击带横线的绿色按钮缩小地图;或者点击绿色箭头查看邻近地区的地图。


METAR-TAF: